createdAt,value
2022-08-18T00:01:40.711Z,2.13
2022-08-18T00:04:17.640Z,2.23
2022-08-18T00:06:58.129Z,1.30
2022-08-18T00:09:32.040Z,2.07
2022-08-18T00:12:01.382Z,1.90
2022-08-18T00:14:29.345Z,1.67
2022-08-18T00:16:57.317Z,1.77
2022-08-18T00:19:45.380Z,1.40
2022-08-18T00:22:15.823Z,2.40
2022-08-18T00:24:48.654Z,2.10
2022-08-18T00:27:19.586Z,1.47
2022-08-18T00:29:49.863Z,2.23
2022-08-18T00:32:18.880Z,1.13
2022-08-18T00:34:46.839Z,1.40
2022-08-18T00:37:14.816Z,2.13
2022-08-18T00:39:46.038Z,1.63
2022-08-18T00:42:28.171Z,2.63
2022-08-18T00:44:59.890Z,1.87
2022-08-18T00:47:41.751Z,1.77
2022-08-18T00:50:16.030Z,1.13
2022-08-18T00:52:46.335Z,2.13
2022-08-18T00:55:14.260Z,1.23
2022-08-18T00:57:43.757Z,2.73
2022-08-18T01:00:13.105Z,2.63
2022-08-18T01:02:43.826Z,2.33
2022-08-18T01:05:13.682Z,3.87
2022-08-18T01:07:44.290Z,1.40
2022-08-18T01:10:14.605Z,2.97
2022-08-18T01:12:46.654Z,1.30
2022-08-18T01:15:28.839Z,1.30
2022-08-18T01:18:15.779Z,1.47
2022-08-18T01:21:02.646Z,1.33
2022-08-18T01:23:31.951Z,1.73
2022-08-18T01:26:04.200Z,1.30
2022-08-18T01:28:34.601Z,1.57
2022-08-18T01:31:02.888Z,4.17
2022-08-18T01:33:32.695Z,2.30
2022-08-18T01:36:02.697Z,5.40
2022-08-18T01:38:32.471Z,4.50
2022-08-18T01:41:25.867Z,4.73
2022-08-18T01:43:49.670Z,4.03
2022-08-18T01:46:20.046Z,4.60
2022-08-18T01:48:48.249Z,3.57
2022-08-18T01:51:16.311Z,3.47
2022-08-18T01:53:46.215Z,4.63
2022-08-18T01:56:17.595Z,3.23
2022-08-18T01:58:47.687Z,4.60
2022-08-18T02:01:16.088Z,4.50
2022-08-18T02:03:45.816Z,4.60
2022-08-18T02:06:15.016Z,6.07
2022-08-18T02:08:43.672Z,4.13
2022-08-18T02:11:15.902Z,3.47
2022-08-18T02:13:43.857Z,7.70
2022-08-18T02:16:11.849Z,6.73
2022-08-18T02:18:48.448Z,6.30
2022-08-18T02:21:19.866Z,6.43
2022-08-18T02:23:52.872Z,6.43
2022-08-18T02:26:23.362Z,5.17
2022-08-18T02:28:51.291Z,4.80
2022-08-18T02:31:19.993Z,5.67
2022-08-18T02:33:51.831Z,4.07
2022-08-18T02:36:20.687Z,4.63
2022-08-18T02:38:59.581Z,5.23
2022-08-18T02:41:30.080Z,7.07
2022-08-18T02:43:58.294Z,8.13
2022-08-18T02:46:29.848Z,7.00
2022-08-18T02:48:58.328Z,9.07
2022-08-18T02:51:26.339Z,7.03
2022-08-18T02:53:54.522Z,6.30
2022-08-18T02:56:40.648Z,6.00
2022-08-18T02:59:12.097Z,7.23
2022-08-18T03:01:40.839Z,6.67
2022-08-18T03:04:09.713Z,6.80
2022-08-18T03:06:37.990Z,6.33
2022-08-18T03:09:06.205Z,5.77
2022-08-18T03:11:34.151Z,5.83
2022-08-18T03:14:02.130Z,7.73
2022-08-18T03:16:33.183Z,6.53
2022-08-18T03:19:01.626Z,5.60
2022-08-18T03:21:30.548Z,5.13
2022-08-18T03:24:00.985Z,5.83
2022-08-18T03:26:30.435Z,4.50
2022-08-18T03:29:00.018Z,6.20
2022-08-18T03:31:29.643Z,7.67
2022-08-18T03:33:59.710Z,8.53
2022-08-18T03:36:28.812Z,14.07
2022-08-18T03:38:57.067Z,12.80
2022-08-18T03:41:43.589Z,11.97
2022-08-18T03:44:15.825Z,12.87
2022-08-18T03:46:44.697Z,13.83
2022-08-18T03:49:15.409Z,15.07
2022-08-18T03:51:46.569Z,15.10
2022-08-18T03:54:16.490Z,14.53
2022-08-18T03:56:44.777Z,18.73
2022-08-18T03:59:16.978Z,12.23
2022-08-18T04:01:45.758Z,15.97
2022-08-18T04:04:16.329Z,15.93
2022-08-18T04:06:45.301Z,12.10
2022-08-18T04:09:14.222Z,15.40
2022-08-18T04:11:44.370Z,18.57
2022-08-18T04:14:13.098Z,17.70
2022-08-18T04:16:41.180Z,19.33
2022-08-18T04:19:09.359Z,17.23
2022-08-18T04:21:39.771Z,15.60
2022-08-18T04:24:08.269Z,14.30
2022-08-18T04:26:37.264Z,12.70
2022-08-18T04:29:07.455Z,14.17
2022-08-18T04:31:35.546Z,15.93
2022-08-18T04:34:04.219Z,15.80
2022-08-18T04:36:34.180Z,16.80
2022-08-18T04:39:03.756Z,15.90
2022-08-18T04:41:31.833Z,11.70
2022-08-18T04:44:00.673Z,14.23
2022-08-18T04:46:28.972Z,13.23
2022-08-18T04:48:58.990Z,11.60
2022-08-18T04:52:36.411Z,11.27
2022-08-18T04:54:16.553Z,9.57
2022-08-18T04:56:44.541Z,11.10
2022-08-18T04:59:13.537Z,8.37
2022-08-18T05:01:42.613Z,8.87
2022-08-18T05:04:13.546Z,8.33
2022-08-18T05:06:41.778Z,10.13
2022-08-18T05:09:10.316Z,8.33
2022-08-18T05:11:39.985Z,7.13
2022-08-18T05:14:08.877Z,6.33
2022-08-18T05:16:48.127Z,8.53
2022-08-18T05:19:21.951Z,4.63
2022-08-18T05:21:52.208Z,7.80
2022-08-18T05:24:20.877Z,5.90
2022-08-18T05:26:51.259Z,5.37
2022-08-18T05:29:21.225Z,11.50
2022-08-18T05:31:49.433Z,9.83
2022-08-18T05:34:17.535Z,6.17
2022-08-18T05:36:57.561Z,5.77
2022-08-18T05:39:26.783Z,7.90
2022-08-18T05:41:59.382Z,6.60
2022-08-18T05:44:31.385Z,7.20
2022-08-18T05:47:02.250Z,7.33
2022-08-18T05:49:30.285Z,7.30
2022-08-18T05:51:58.937Z,5.47
2022-08-18T05:54:44.620Z,5.67
2022-08-18T05:57:15.462Z,6.63
2022-08-18T05:59:44.711Z,4.87
2022-08-18T06:02:19.449Z,5.87
2022-08-18T06:04:49.978Z,7.30
2022-08-18T06:07:20.144Z,5.63
2022-08-18T06:09:50.160Z,5.77
2022-08-18T06:12:25.574Z,5.67
2022-08-18T06:14:53.684Z,4.57
2022-08-18T06:17:46.731Z,4.10
2022-08-18T06:20:19.633Z,4.53
2022-08-18T06:22:55.393Z,5.23
2022-08-18T06:25:28.073Z,6.27
2022-08-18T06:28:02.084Z,3.67
2022-08-18T06:30:44.466Z,4.73
2022-08-18T06:33:17.980Z,3.03
2022-08-18T06:35:47.496Z,3.67
2022-08-18T06:38:39.413Z,2.33
2022-08-18T06:41:40.793Z,2.87
2022-08-18T06:44:06.988Z,3.60
2022-08-18T06:46:42.050Z,2.83
2022-08-18T06:49:11.635Z,4.10
2022-08-18T06:51:40.932Z,2.60
2022-08-18T06:54:09.640Z,2.07
2022-08-18T06:56:47.944Z,2.67
2022-08-18T06:59:23.545Z,2.33
2022-08-18T07:01:53.380Z,2.23
2022-08-18T07:04:32.650Z,1.50
2022-08-18T07:07:00.660Z,1.27
2022-08-18T07:09:34.795Z,3.97
2022-08-18T07:12:06.045Z,2.33
2022-08-18T07:14:43.088Z,1.03
2022-08-18T07:17:12.592Z,1.03
2022-08-18T07:19:40.736Z,1.20
2022-08-18T07:22:10.336Z,2.20
2022-08-18T07:24:41.247Z,1.00
2022-08-18T07:27:10.623Z,1.00
2022-08-18T07:29:40.784Z,1.57
2022-08-18T07:32:20.836Z,3.73
2022-08-18T07:34:53.313Z,1.17
2022-08-18T07:37:28.611Z,3.20
2022-08-18T07:39:58.243Z,1.20
2022-08-18T07:43:00.680Z,1.50
2022-08-18T07:45:33.203Z,1.37
2022-08-18T07:48:20.809Z,1.20
2022-08-18T07:50:58.372Z,3.00
2022-08-18T07:53:37.340Z,1.13
2022-08-18T07:56:08.071Z,1.50
2022-08-18T07:58:39.012Z,1.13
2022-08-18T08:01:11.912Z,1.23
2022-08-18T08:03:44.899Z,1.33
2022-08-18T08:06:17.058Z,0.90
2022-08-18T08:08:49.450Z,1.83
2022-08-18T08:11:22.314Z,1.73
2022-08-18T08:13:57.675Z,1.30
2022-08-18T08:16:36.408Z,0.83
2022-08-18T08:19:12.430Z,1.57
2022-08-18T08:21:43.803Z,1.13
2022-08-18T08:24:24.500Z,2.83
2022-08-18T08:26:56.218Z,1.10
2022-08-18T08:29:39.292Z,1.63
2022-08-18T08:32:11.837Z,1.40
2022-08-18T08:34:41.834Z,2.37
2022-08-18T08:37:14.866Z,1.00
2022-08-18T08:39:45.284Z,1.13
2022-08-18T08:42:32.126Z,1.13
2022-08-18T08:45:05.215Z,0.90
2022-08-18T08:47:37.269Z,1.00
2022-08-18T08:50:08.053Z,2.30
2022-08-18T08:52:37.719Z,0.93
2022-08-18T08:55:07.731Z,0.83
2022-08-18T08:57:44.155Z,4.30
2022-08-18T09:00:14.884Z,0.73
2022-08-18T09:03:08.415Z,0.70
2022-08-18T09:05:37.511Z,0.87
2022-08-18T09:08:24.034Z,1.97
2022-08-18T09:11:02.655Z,0.50
2022-08-18T09:13:40.849Z,1.57
2022-08-18T09:16:24.296Z,0.70
2022-08-18T09:19:06.749Z,3.43
2022-08-18T09:21:40.901Z,2.37
2022-08-18T09:24:15.244Z,1.20
2022-08-18T09:26:48.811Z,0.90
2022-08-18T09:29:23.688Z,0.90
2022-08-18T09:32:40.148Z,0.93
2022-08-18T09:35:20.177Z,2.23
2022-08-18T09:38:13.810Z,0.87
2022-08-18T09:41:06.597Z,0.73
2022-08-18T09:43:39.196Z,0.80
2022-08-18T09:46:08.694Z,0.50
2022-08-18T09:51:39.848Z,0.60
2022-08-18T09:54:21.188Z,0.90
2022-08-18T09:57:19.388Z,0.87
2022-08-18T10:00:08.863Z,0.90
2022-08-18T10:03:31.025Z,1.10
2022-08-18T10:06:15.764Z,1.07
2022-08-18T10:11:59.174Z,0.77
2022-08-18T10:14:54.945Z,0.90
2022-08-18T10:17:32.966Z,0.80
2022-08-18T10:20:05.584Z,1.03
2022-08-18T10:22:41.793Z,1.23
2022-08-18T10:25:22.671Z,1.40
2022-08-18T10:27:53.611Z,1.63
2022-08-18T10:30:57.469Z,1.40
2022-08-18T10:33:56.917Z,1.53
2022-08-18T10:36:52.886Z,1.23
2022-08-18T10:39:22.326Z,0.77
2022-08-18T10:42:01.430Z,2.47
2022-08-18T10:44:30.941Z,2.60
2022-08-18T10:47:00.367Z,0.50
2022-08-18T10:49:29.156Z,0.53
2022-08-18T10:52:35.659Z,0.70
2022-08-18T10:55:47.742Z,1.30
2022-08-18T10:58:28.017Z,1.27
2022-08-18T11:01:18.031Z,0.77
2022-08-18T11:03:59.548Z,1.50
2022-08-18T11:06:42.980Z,2.30
2022-08-18T11:09:11.302Z,2.13
2022-08-18T11:11:52.917Z,1.23
2022-08-18T11:15:22.773Z,0.83
2022-08-18T11:18:01.311Z,1.17
2022-08-18T11:20:32.103Z,0.80
2022-08-18T11:23:01.840Z,0.90
2022-08-18T11:25:31.861Z,1.73
2022-08-18T11:28:01.343Z,1.53
2022-08-18T11:30:35.350Z,1.47
2022-08-18T11:33:04.132Z,1.03
2022-08-18T11:35:34.248Z,2.37
2022-08-18T11:38:03.504Z,1.90
2022-08-18T11:43:29.715Z,1.27
2022-08-18T11:46:14.283Z,0.83
2022-08-18T11:48:52.798Z,0.93
2022-08-18T11:51:24.222Z,0.80
2022-08-18T11:53:58.649Z,1.00
2022-08-18T11:59:52.879Z,1.13
2022-08-18T12:02:22.738Z,1.30
2022-08-18T12:04:53.436Z,1.20
2022-08-18T12:07:29.259Z,1.03
2022-08-18T12:13:03.018Z,2.17
2022-08-18T12:15:43.907Z,2.00
2022-08-18T12:18:26.230Z,1.57
2022-08-18T12:20:58.232Z,1.00
2022-08-18T12:23:26.689Z,1.53
2022-08-18T12:25:54.809Z,1.73
2022-08-18T12:28:22.892Z,2.13
2022-08-18T12:30:57.490Z,2.50
2022-08-18T12:33:34.429Z,2.97
2022-08-18T12:36:15.754Z,1.13
2022-08-18T12:38:45.154Z,0.90
2022-08-18T12:41:23.739Z,1.60
2022-08-18T12:43:58.553Z,1.00
2022-08-18T12:46:27.402Z,1.20
2022-08-18T12:48:56.809Z,1.53
2022-08-18T12:51:30.405Z,2.37
2022-08-18T12:53:59.779Z,0.63
2022-08-18T12:56:30.334Z,0.70
2022-08-18T12:59:04.356Z,0.83
2022-08-18T13:01:33.450Z,0.70
2022-08-18T13:04:13.317Z,1.43
2022-08-18T13:06:48.530Z,1.53
2022-08-18T13:09:35.324Z,1.00
2022-08-18T13:12:17.338Z,0.73
2022-08-18T13:14:45.564Z,1.27
2022-08-18T13:17:32.495Z,2.30
2022-08-18T13:20:05.624Z,1.07
2022-08-18T13:22:33.701Z,1.43
2022-08-18T13:25:04.013Z,0.80
2022-08-18T13:27:35.984Z,0.93
2022-08-18T13:30:30.597Z,0.93
2022-08-18T13:33:00.407Z,1.00
2022-08-18T13:35:38.083Z,0.80
2022-08-18T13:38:14.413Z,0.83
2022-08-18T13:40:48.426Z,1.00
2022-08-18T13:43:17.592Z,1.47
2022-08-18T13:45:48.097Z,1.17
2022-08-18T13:48:21.545Z,1.00
2022-08-18T13:50:53.875Z,0.97
2022-08-18T13:53:24.689Z,0.90
2022-08-18T13:55:54.178Z,1.00
2022-08-18T13:58:22.197Z,1.00
2022-08-18T14:00:52.222Z,1.50
2022-08-18T14:03:42.204Z,0.70
2022-08-18T14:06:13.315Z,1.73
2022-08-18T14:08:42.243Z,3.10
2022-08-18T14:11:10.632Z,1.00
2022-08-18T14:13:43.910Z,0.90
2022-08-18T14:16:18.731Z,1.00
2022-08-18T14:19:09.759Z,1.10
2022-08-18T14:21:55.756Z,1.87
2022-08-18T14:24:41.221Z,1.10
2022-08-18T14:27:09.464Z,0.70
2022-08-18T14:29:45.838Z,7.20
2022-08-18T14:32:18.136Z,0.73
2022-08-18T14:34:50.669Z,0.60
2022-08-18T14:37:20.741Z,0.90
2022-08-18T14:39:53.851Z,1.00
2022-08-18T14:42:40.999Z,0.90
2022-08-18T14:45:26.690Z,0.90
2022-08-18T14:47:59.850Z,0.60
2022-08-18T14:50:28.416Z,0.73
2022-08-18T14:52:58.002Z,2.80
2022-08-18T14:55:27.074Z,0.60
2022-08-18T14:57:55.011Z,1.47
2022-08-18T15:00:27.616Z,1.03
2022-08-18T15:02:57.394Z,3.80
2022-08-18T15:05:32.214Z,4.90
2022-08-18T15:08:04.724Z,1.67
2022-08-18T15:10:33.177Z,2.00
2022-08-18T15:13:01.482Z,8.20
2022-08-18T15:15:50.900Z,1.53
2022-08-18T15:18:22.781Z,2.60
2022-08-18T15:21:10.293Z,1.30
2022-08-18T15:24:14.959Z,1.77
2022-08-18T15:26:51.753Z,0.80
2022-08-18T15:29:28.936Z,2.53
2022-08-18T15:32:02.095Z,1.00
2022-08-18T15:34:47.065Z,3.53
2022-08-18T15:37:19.452Z,1.53
2022-08-18T15:39:51.880Z,1.03
2022-08-18T15:42:24.359Z,1.23
2022-08-18T15:44:53.730Z,0.70
2022-08-18T15:47:25.137Z,0.50
2022-08-18T15:49:54.761Z,1.03
2022-08-18T15:52:25.821Z,0.93
2022-08-18T15:54:58.384Z,1.33
2022-08-18T15:57:39.762Z,1.10
2022-08-18T16:00:12.266Z,1.40
2022-08-18T16:02:44.605Z,1.17
2022-08-18T16:05:17.141Z,1.00
2022-08-18T16:07:47.596Z,0.97
2022-08-18T16:10:17.839Z,1.00
2022-08-18T16:12:46.421Z,1.40
2022-08-18T16:15:15.515Z,0.87
2022-08-18T16:17:48.255Z,1.27
2022-08-18T16:20:16.282Z,1.03
2022-08-18T16:22:44.248Z,1.37
2022-08-18T16:25:12.261Z,3.30
2022-08-18T16:27:42.697Z,0.70
2022-08-18T16:30:11.520Z,1.00
2022-08-18T16:32:39.492Z,1.90
2022-08-18T16:35:08.145Z,1.20
2022-08-18T16:37:36.091Z,0.50
2022-08-18T16:40:04.590Z,0.77
2022-08-18T16:42:33.371Z,0.90
2022-08-18T16:45:02.735Z,1.37
2022-08-18T16:47:30.780Z,1.10
2022-08-18T16:50:01.080Z,1.83
2022-08-18T16:52:29.108Z,0.70
2022-08-18T16:54:57.907Z,2.53
2022-08-18T16:57:53.672Z,1.30
2022-08-18T17:00:42.287Z,0.80
2022-08-18T17:03:29.068Z,2.03
2022-08-18T17:06:01.091Z,2.03
2022-08-18T17:08:29.096Z,1.13
2022-08-18T17:10:57.265Z,0.90
2022-08-18T17:13:25.183Z,0.93
2022-08-18T17:15:54.837Z,2.10
2022-08-18T17:18:23.059Z,6.10
2022-08-18T17:20:51.474Z,11.27
2022-08-18T17:23:19.497Z,56.03
2022-08-18T17:25:48.815Z,66.40
2022-08-18T17:28:18.593Z,42.97
2022-08-18T17:30:50.322Z,36.57
2022-08-18T17:33:26.307Z,21.67
2022-08-18T17:35:54.936Z,13.60
2022-08-18T17:38:27.016Z,10.77
2022-08-18T17:40:55.967Z,9.07
2022-08-18T17:43:27.421Z,13.07
2022-08-18T17:45:57.178Z,14.83
2022-08-18T17:48:29.449Z,11.50
2022-08-18T17:51:18.412Z,16.47
2022-08-18T17:53:47.571Z,7.47
2022-08-18T17:56:17.441Z,9.50
2022-08-18T17:58:55.201Z,9.83
2022-08-18T18:01:23.675Z,5.03
2022-08-18T18:03:53.245Z,5.57
2022-08-18T18:06:29.780Z,5.20
2022-08-18T18:08:59.331Z,4.93
2022-08-18T18:11:31.024Z,5.70
2022-08-18T18:14:00.481Z,3.63
2022-08-18T18:16:35.115Z,3.60
2022-08-18T18:19:07.402Z,4.70
2022-08-18T18:21:58.891Z,4.50
2022-08-18T18:24:29.723Z,5.37
2022-08-18T18:26:58.363Z,4.23
2022-08-18T18:29:30.674Z,3.50
2022-08-18T18:32:02.857Z,1.63
2022-08-18T18:34:34.798Z,2.30
2022-08-18T18:37:03.439Z,2.93
2022-08-18T18:39:34.299Z,2.47
2022-08-18T18:42:17.644Z,2.57
2022-08-18T18:44:52.668Z,2.90
2022-08-18T18:47:42.569Z,6.00
2022-08-18T18:50:16.227Z,3.37
2022-08-18T18:52:47.951Z,2.27
2022-08-18T18:55:17.025Z,5.93
2022-08-18T18:57:49.283Z,5.33
2022-08-18T19:00:20.899Z,2.43
2022-08-18T19:02:55.273Z,4.93
2022-08-18T19:05:29.140Z,6.97
2022-08-18T19:08:06.010Z,5.47
2022-08-18T19:10:37.144Z,7.57
2022-08-18T19:13:10.159Z,8.70
2022-08-18T19:15:38.994Z,6.57
2022-08-18T19:18:28.538Z,7.97
2022-08-18T19:21:49.291Z,6.77
2022-08-18T19:23:56.561Z,4.67
2022-08-18T19:26:27.206Z,5.67
2022-08-18T19:29:13.748Z,6.57
2022-08-18T19:31:43.367Z,3.93
2022-08-18T19:34:16.506Z,11.17
2022-08-18T19:36:49.439Z,7.30
2022-08-18T19:39:19.585Z,7.80
2022-08-18T19:41:49.849Z,8.77
2022-08-18T19:44:29.261Z,8.87
2022-08-18T19:46:59.953Z,6.67
2022-08-18T19:49:31.432Z,7.37
2022-08-18T19:52:02.692Z,5.10
2022-08-18T19:54:38.145Z,7.50
2022-08-18T19:57:22.285Z,8.63
2022-08-18T20:00:08.626Z,6.87
2022-08-18T20:02:44.155Z,6.73
2022-08-18T20:05:20.507Z,8.53
2022-08-18T20:08:31.314Z,4.43
2022-08-18T20:11:20.945Z,7.93
2022-08-18T20:14:11.501Z,3.97
2022-08-18T20:16:44.064Z,4.70
2022-08-18T20:19:59.483Z,5.40
2022-08-18T20:22:32.370Z,3.60
2022-08-18T20:25:06.445Z,4.07
2022-08-18T20:27:36.493Z,2.57
2022-08-18T20:30:23.486Z,3.10
2022-08-18T20:33:14.972Z,2.80
2022-08-18T20:35:46.923Z,3.43
2022-08-18T20:38:19.326Z,3.33
2022-08-18T20:40:49.527Z,3.63
2022-08-18T20:43:26.826Z,3.53
2022-08-18T20:46:07.745Z,3.80
2022-08-18T20:48:53.162Z,5.00
2022-08-18T20:51:23.997Z,3.20
2022-08-18T20:54:13.644Z,3.50
2022-08-18T20:56:46.509Z,5.73
2022-08-18T20:59:20.538Z,5.37
2022-08-18T21:01:56.101Z,5.30
2022-08-18T21:04:48.361Z,4.77
2022-08-18T21:07:36.703Z,6.67
2022-08-18T21:10:12.436Z,3.97
2022-08-18T21:12:52.168Z,3.60
2022-08-18T21:15:22.466Z,6.87
2022-08-18T21:17:58.156Z,2.20
2022-08-18T21:20:26.224Z,4.77
2022-08-18T21:23:05.692Z,4.27
2022-08-18T21:25:33.749Z,2.87
2022-08-18T21:28:03.880Z,5.40
2022-08-18T21:30:32.318Z,2.63
2022-08-18T21:33:00.333Z,2.10
2022-08-18T21:35:30.854Z,2.07
2022-08-18T21:38:00.180Z,2.53
2022-08-18T21:40:36.881Z,1.87
2022-08-18T21:43:06.383Z,3.23
2022-08-18T21:45:34.365Z,4.13
2022-08-18T21:48:05.103Z,2.03
2022-08-18T21:50:33.937Z,3.70
2022-08-18T21:53:05.300Z,6.23
2022-08-18T21:55:34.904Z,3.30
2022-08-18T21:58:07.288Z,3.70
2022-08-18T22:00:36.653Z,2.40
2022-08-18T22:03:19.035Z,3.00
2022-08-18T22:05:58.849Z,1.20
2022-08-18T22:08:28.667Z,2.93
2022-08-18T22:12:00.087Z,3.10
2022-08-18T22:14:30.252Z,3.33
2022-08-18T22:17:26.752Z,2.10
2022-08-18T22:19:54.791Z,1.87
2022-08-18T22:22:40.549Z,2.27
2022-08-18T22:25:09.080Z,4.17
2022-08-18T22:27:37.001Z,1.27
2022-08-18T22:30:07.070Z,4.47
2022-08-18T22:32:38.796Z,4.60
2022-08-18T22:35:07.831Z,2.07
2022-08-18T22:37:38.300Z,1.67
2022-08-18T22:40:09.553Z,1.90
2022-08-18T22:42:37.672Z,4.23
2022-08-18T22:45:09.028Z,3.50
2022-08-18T22:47:43.623Z,2.07
2022-08-18T22:50:13.253Z,2.37
2022-08-18T22:52:42.149Z,1.93
2022-08-18T22:55:12.451Z,1.70
2022-08-18T22:57:40.966Z,3.33
2022-08-18T23:00:14.435Z,1.37
2022-08-18T23:02:42.776Z,3.57
2022-08-18T23:05:11.552Z,4.00
2022-08-18T23:07:39.516Z,2.20
2022-08-18T23:10:14.147Z,4.33
2022-08-18T23:12:42.680Z,1.93
2022-08-18T23:15:12.371Z,1.67
2022-08-18T23:17:40.651Z,2.37
2022-08-18T23:20:11.496Z,2.53
2022-08-18T23:22:39.629Z,2.23
2022-08-18T23:25:09.399Z,4.60
2022-08-18T23:27:37.480Z,3.83
2022-08-18T23:30:06.589Z,3.00
2022-08-18T23:32:35.886Z,5.60
2022-08-18T23:35:03.843Z,2.43
2022-08-18T23:37:31.870Z,2.93
2022-08-18T23:39:59.990Z,1.97
2022-08-18T23:42:28.030Z,2.33
2022-08-18T23:45:04.309Z,2.30
2022-08-18T23:47:32.322Z,2.73
2022-08-18T23:50:01.612Z,2.20
2022-08-18T23:52:29.567Z,2.40
2022-08-18T23:54:57.540Z,2.10
2022-08-18T23:57:25.492Z,4.80
2022-08-18T23:59:54.327Z,2.47
